Time;durP1;ratioP1;P1;durP2;ratioP2;P2;SDS_P1;SDS_P2;PMS_P1;PMS_P2;Temp;Humidity;BMP_temperature;BMP_pressure;BME280_temperature;BME280_humidity;BME280_pressure;Samples;Min_cycle;Max_cycle;Signal;HPM_P1;HPM_P2
2021/09/27 00:01:25;;;;;;;13.60;12.20;;;16.70;99.90;;;;;;5028422;28;20189;-51
2021/09/27 00:03:51;;;;;;;13.05;11.75;;;17.20;99.90;;;;;;5030749;28;20240;-49
2021/09/27 00:06:17;;;;;;;13.40;12.13;;;17.00;99.90;;;;;;5026998;28;20208;-50
2021/09/27 00:08:43;;;;;;;15.13;12.95;;;17.00;99.90;;;;;;5026229;28;20686;-50
2021/09/27 00:11:14;;;;;;;13.10;11.80;;;16.80;99.90;;;;;;5030687;28;20200;-49
2021/09/27 00:13:44;;;;;;;13.30;12.00;;;16.90;99.90;;;;;;5028320;28;20481;-50
2021/09/27 00:16:11;;;;;;;14.73;13.32;;;17.00;99.90;;;;;;5038688;28;20215;-50
2021/09/27 00:18:38;;;;;;;13.52;12.13;;;16.80;99.90;;;;;;5036480;28;20289;-50
2021/09/27 00:21:07;;;;;;;14.25;12.85;;;17.00;99.90;;;;;;5039662;28;20189;-50
2021/09/27 00:23:36;;;;;;;14.77;13.05;;;16.70;99.90;;;;;;5027313;28;20656;-50
2021/09/27 00:26:03;;;;;;;13.77;12.38;;;16.80;99.90;;;;;;5034965;28;20205;-51
2021/09/27 00:28:28;;;;;;;13.95;12.55;;;16.90;99.90;;;;;;5027219;28;20221;-50
2021/09/27 00:30:54;;;;;;;14.40;12.90;;;16.70;99.90;;;;;;5030152;28;20190;-50
2021/09/27 00:33:22;;;;;;;14.60;13.07;;;16.90;99.90;;;;;;5029640;28;20258;-51
2021/09/27 00:35:48;;;;;;;13.55;12.15;;;16.70;99.90;;;;;;5030014;28;20217;-50
2021/09/27 00:38:14;;;;;;;14.33;12.20;;;16.60;99.90;;;;;;5026566;28;20687;-49
2021/09/27 00:40:48;;;;;;;13.00;11.63;;;16.70;99.90;;;;;;5029880;28;20441;-49
2021/09/27 00:43:14;;;;;;;13.88;12.50;;;16.70;99.90;;;;;;5022342;28;20197;-50
2021/09/27 00:45:43;;;;;;;13.93;12.52;;;16.80;99.90;;;;;;5029293;28;20189;-50
2021/09/27 00:48:09;;;;;;;14.10;12.70;;;16.70;99.90;;;;;;5030135;28;20240;-50
2021/09/27 00:50:41;;;;;;;13.63;12.32;;;16.50;99.90;;;;;;5028881;28;20196;-50
2021/09/27 00:53:15;;;;;;;13.55;12.15;;;16.60;99.90;;;;;;5022446;28;20217;-50
2021/09/27 00:55:41;;;;;;;14.00;12.55;;;16.50;99.90;;;;;;5030063;28;20563;-49
2021/09/27 00:58:07;;;;;;;13.65;12.25;;;16.30;99.90;;;;;;5029477;28;20210;-50
2021/09/27 01:00:33;;;;;;;14.93;13.20;;;16.30;99.90;;;;;;5026090;28;20652;-50
2021/09/27 01:02:58;;;;;;;14.38;12.98;;;16.50;99.90;;;;;;5029327;28;20440;-50
2021/09/27 01:05:25;;;;;;;14.20;12.67;;;16.20;99.90;;;;;;5030397;28;20191;-50
2021/09/27 01:08:01;;;;;;;14.23;12.77;;;16.30;99.90;;;;;;5024717;28;20211;-50
2021/09/27 01:10:37;;;;;;;13.77;12.38;;;16.50;99.90;;;;;;5029876;28;20190;-51
2021/09/27 01:13:24;;;;;;;14.20;12.70;;;16.30;99.90;;;;;;5026586;28;20241;-49
2021/09/27 01:16:00;;;;;;;14.75;13.15;;;16.50;99.90;;;;;;5028215;28;20535;-50
2021/09/27 01:18:59;;;;;;;13.23;11.82;;;16.30;99.90;;;;;;5029275;28;20671;-49
2021/09/27 01:21:28;;;;;;;12.13;10.90;;;16.30;99.90;;;;;;5027390;28;20198;-50
2021/09/27 01:24:38;;;;;;;13.82;12.52;;;16.10;99.90;;;;;;5027289;28;20192;-50
2021/09/27 01:27:42;;;;;;;13.25;11.95;;;16.20;99.90;;;;;;5029645;28;20651;-50
2021/09/27 01:30:32;;;;;;;15.27;13.65;;;16.00;99.90;;;;;;5021981;28;20206;-49
2021/09/27 01:33:05;;;;;;;13.75;12.25;;;16.00;99.90;;;;;;5033083;28;20217;-50
2021/09/27 01:35:50;;;;;;;14.55;13.05;;;16.00;99.90;;;;;;5040930;28;20273;-49
2021/09/27 01:38:22;;;;;;;13.70;12.25;;;16.00;99.90;;;;;;5029083;28;20205;-49
2021/09/27 01:41:12;;;;;;;14.07;12.60;;;16.20;99.90;;;;;;5029382;28;20197;-50
2021/09/27 01:44:00;;;;;;;13.88;12.43;;;16.30;99.90;;;;;;5028925;28;20264;-50
2021/09/27 01:46:36;;;;;;;14.38;11.95;;;16.30;99.90;;;;;;5031724;28;20245;-49
2021/09/27 01:49:11;;;;;;;13.40;12.00;;;16.40;99.90;;;;;;5033076;28;20218;-49
2021/09/27 01:51:44;;;;;;;13.07;11.57;;;16.70;99.90;;;;;;5033597;28;20181;-50
2021/09/27 01:54:14;;;;;;;14.07;12.55;;;16.50;99.90;;;;;;5032370;28;20228;-50
2021/09/27 01:57:01;;;;;;;13.45;12.05;;;16.50;99.90;;;;;;5033310;28;20182;-51
2021/09/27 01:59:39;;;;;;;12.60;11.35;;;16.80;99.90;;;;;;5030717;28;20297;-51
2021/09/27 02:02:21;;;;;;;13.63;12.23;;;16.60;99.90;;;;;;5038579;28;20664;-51
2021/09/27 02:05:01;;;;;;;15.32;13.73;;;16.80;99.90;;;;;;5037284;28;20240;-51
2021/09/27 02:07:30;;;;;;;13.50;12.10;;;16.60;99.90;;;;;;5039750;28;20213;-51
2021/09/27 02:10:11;;;;;;;13.38;12.00;;;16.60;99.90;;;;;;5032910;28;20337;-51
2021/09/27 02:12:46;;;;;;;14.10;11.75;;;16.80;99.90;;;;;;5039930;28;20214;-51
2021/09/27 02:15:14;;;;;;;13.55;12.25;;;16.90;99.90;;;;;;5033936;28;20643;-50
2021/09/27 02:17:55;;;;;;;14.55;13.05;;;16.80;99.90;;;;;;5032953;28;20210;-52
2021/09/27 02:20:37;;;;;;;12.55;11.40;;;16.80;99.90;;;;;;5027074;28;20671;-51
2021/09/27 02:23:26;;;;;;;14.40;12.90;;;16.90;99.90;;;;;;5027944;28;20194;-50
2021/09/27 02:25:52;;;;;;;14.32;12.73;;;16.80;99.90;;;;;;5036976;28;20241;-52
2021/09/27 02:28:20;;;;;;;12.73;11.43;;;16.70;99.90;;;;;;5039782;28;20232;-53
2021/09/27 02:31:05;;;;;;;11.88;10.77;;;16.90;99.90;;;;;;5037849;28;20323;-51
2021/09/27 02:33:44;;;;;;;11.50;10.30;;;16.90;99.90;;;;;;5036302;28;20211;-51
2021/09/27 02:36:13;;;;;;;13.10;11.80;;;16.80;99.90;;;;;;5039596;28;20285;-50
2021/09/27 02:38:53;;;;;;;12.65;11.38;;;16.50;99.90;;;;;;5030608;28;20233;-50
2021/09/27 02:41:39;;;;;;;14.25;11.60;;;16.70;99.90;;;;;;5031660;28;20233;-50
2021/09/27 02:44:05;;;;;;;13.45;12.15;;;16.80;99.90;;;;;;5030169;28;20285;-51
2021/09/27 02:46:32;;;;;;;12.50;11.25;;;16.50;99.90;;;;;;5030074;28;20201;-51
2021/09/27 02:49:11;;;;;;;13.50;12.10;;;16.90;99.90;;;;;;5029792;28;20568;-51
2021/09/27 02:51:39;;;;;;;11.93;10.70;;;16.70;99.90;;;;;;5041767;28;20280;-52
2021/09/27 02:54:06;;;;;;;13.20;11.50;;;16.70;99.90;;;;;;5027883;28;20655;-52
2021/09/27 02:57:01;;;;;;;13.10;11.75;;;16.50;99.90;;;;;;5022283;28;20191;-52
2021/09/27 02:59:59;;;;;;;11.77;10.45;;;16.50;99.90;;;;;;5029839;28;20220;-52
2021/09/27 03:03:08;;;;;;;12.88;10.68;;;16.90;99.90;;;;;;5026794;28;20289;-52
2021/09/27 03:05:58;;;;;;;11.60;10.50;;;16.80;99.90;;;;;;5032152;28;20651;-50
2021/09/27 03:08:27;;;;;;;11.68;10.57;;;16.60;99.90;;;;;;5024592;28;20206;-51
2021/09/27 03:11:27;;;;;;;12.30;11.10;;;17.00;99.90;;;;;;5038485;28;20247;-51
2021/09/27 03:14:20;;;;;;;12.13;10.93;;;17.00;99.90;;;;;;5018358;28;20629;-52
2021/09/27 03:17:00;;;;;;;13.15;10.95;;;16.90;99.90;;;;;;5027225;28;20614;-51
2021/09/27 03:19:54;;;;;;;13.30;12.05;;;16.90;99.90;;;;;;5028950;28;20209;-50
2021/09/27 03:22:33;;;;;;;11.98;10.85;;;16.90;99.90;;;;;;5029386;28;20186;-50
2021/09/27 03:25:41;;;;;;;12.63;11.43;;;17.10;99.90;;;;;;5038690;28;20552;-52
2021/09/27 03:28:44;;;;;;;11.80;10.60;;;17.10;99.90;;;;;;5031225;28;20206;-51
2021/09/27 03:31:28;;;;;;;12.50;11.30;;;17.00;99.90;;;;;;5028019;28;20188;-51
2021/09/27 03:34:21;;;;;;;12.23;10.45;;;16.70;99.90;;;;;;5030793;28;20280;-51
2021/09/27 03:37:11;;;;;;;11.52;10.32;;;17.20;99.90;;;;;;5028981;28;20189;-51
2021/09/27 03:39:49;;;;;;;13.75;11.45;;;17.10;99.90;;;;;;5025497;28;20530;-52
2021/09/27 03:42:35;;;;;;;11.80;10.70;;;17.00;99.90;;;;;;5031247;28;20282;-51
2021/09/27 03:45:08;;;;;;;12.75;10.35;;;17.10;99.90;;;;;;5030062;28;20210;-50
2021/09/27 03:47:48;;;;;;;11.30;10.20;;;17.30;99.90;;;;;;5031254;28;20202;-51
2021/09/27 03:50:22;;;;;;;13.35;11.93;;;17.30;99.90;;;;;;5025311;28;20682;-51
2021/09/27 03:53:01;;;;;;;12.68;11.05;;;17.20;99.90;;;;;;5030280;28;20263;-51
2021/09/27 03:55:40;;;;;;;13.95;11.50;;;17.20;99.90;;;;;;5030080;28;20198;-51
2021/09/27 03:58:16;;;;;;;12.68;11.35;;;17.20;99.90;;;;;;5030382;28;20210;-51
2021/09/27 04:00:44;;;;;;;11.98;10.82;;;17.20;99.90;;;;;;5029969;28;20276;-52
2021/09/27 04:03:33;;;;;;;12.85;11.57;;;17.00;99.90;;;;;;5031052;28;20186;-50
2021/09/27 04:06:48;;;;;;;12.88;11.77;;;17.10;99.90;;;;;;5030046;28;20229;-50
2021/09/27 04:09:27;;;;;;;12.55;11.32;;;16.70;99.90;;;;;;5027695;28;20232;-50
2021/09/27 04:12:11;;;;;;;13.90;12.60;;;17.00;99.90;;;;;;5040940;28;20204;-50
2021/09/27 04:14:55;;;;;;;12.82;11.52;;;16.80;99.90;;;;;;5022059;28;20251;-50
2021/09/27 04:17:42;;;;;;;12.60;11.30;;;17.20;99.90;;;;;;5030607;28;20181;-49
2021/09/27 04:20:17;;;;;;;12.43;11.18;;;17.00;99.90;;;;;;5033978;28;20205;-50
2021/09/27 04:22:49;;;;;;;12.23;11.02;;;17.10;99.90;;;;;;5037531;28;20244;-50
2021/09/27 04:25:34;;;;;;;12.95;11.38;;;16.90;99.90;;;;;;5022857;28;20192;-50
2021/09/27 04:28:26;;;;;;;12.18;10.98;;;16.90;99.90;;;;;;5035814;28;20217;-50
2021/09/27 04:31:15;;;;;;;13.77;12.38;;;16.80;99.90;;;;;;5029249;28;20197;-49
2021/09/27 04:34:07;;;;;;;16.38;12.85;;;16.90;99.90;;;;;;5031005;28;20705;-50
2021/09/27 04:36:36;;;;;;;14.57;12.93;;;16.90;99.90;;;;;;5027200;28;20611;-49
2021/09/27 04:39:09;;;;;;;13.43;12.13;;;16.80;99.90;;;;;;5031258;28;20744;-49
2021/09/27 04:41:44;;;;;;;13.70;11.77;;;16.90;99.90;;;;;;5035725;28;20189;-49
2021/09/27 04:44:37;;;;;;;13.10;11.77;;;16.80;99.90;;;;;;5031324;28;20195;-49
2021/09/27 04:47:12;;;;;;;12.95;11.70;;;16.70;99.90;;;;;;5025329;28;20669;-50
2021/09/27 04:50:06;;;;;;;13.95;12.55;;;16.90;99.90;;;;;;5026870;28;20194;-51
2021/09/27 04:52:57;;;;;;;14.48;11.75;;;16.60;99.90;;;;;;5026225;28;20281;-50
2021/09/27 04:55:45;;;;;;;16.13;12.40;;;16.50;99.90;;;;;;5026689;28;20178;-51
2021/09/27 04:58:47;;;;;;;14.80;13.20;;;16.40;99.90;;;;;;5021169;28;20214;-51
2021/09/27 05:01:38;;;;;;;13.80;12.40;;;16.40;99.90;;;;;;5020430;28;20186;-51
2021/09/27 05:04:09;;;;;;;13.27;11.85;;;16.60;99.90;;;;;;5024032;28;20275;-50
2021/09/27 05:06:53;;;;;;;14.40;12.90;;;16.40;99.90;;;;;;5032077;28;20187;-50
2021/09/27 05:09:48;;;;;;;15.18;11.70;;;16.60;99.90;;;;;;5022662;28;20206;-52
2021/09/27 05:13:00;;;;;;;13.75;12.30;;;16.30;99.90;;;;;;5016027;28;20234;-51
2021/09/27 05:15:59;;;;;;;13.68;12.27;;;16.40;99.90;;;;;;5027310;28;20184;-51
2021/09/27 05:18:35;;;;;;;13.65;12.20;;;16.40;99.90;;;;;;5028965;28;20206;-50
2021/09/27 05:21:06;;;;;;;14.32;11.73;;;16.50;99.90;;;;;;5030926;28;20182;-50
2021/09/27 05:23:51;;;;;;;12.73;11.43;;;16.20;99.90;;;;;;5030386;28;20667;-51
2021/09/27 05:26:40;;;;;;;14.20;12.43;;;16.30;99.90;;;;;;5039084;28;20311;-53
2021/09/27 05:29:14;;;;;;;17.20;11.80;;;16.20;99.90;;;;;;5014596;28;20207;-54
2021/09/27 05:31:56;;;;;;;13.50;12.13;;;16.40;99.90;;;;;;5030426;28;20513;-53
2021/09/27 05:34:39;;;;;;;14.02;11.90;;;16.20;99.90;;;;;;5033000;28;20748;-54
2021/09/27 05:37:13;;;;;;;13.63;12.25;;;16.20;99.90;;;;;;5028602;28;20187;-54
2021/09/27 05:40:05;;;;;;;13.32;11.90;;;16.00;99.90;;;;;;5032118;28;20691;-53
2021/09/27 05:42:56;;;;;;;14.73;13.15;;;16.00;99.90;;;;;;5025233;28;20182;-54
2021/09/27 05:45:47;;;;;;;13.70;12.30;;;16.00;99.90;;;;;;5026590;28;20185;-53
2021/09/27 05:48:35;;;;;;;17.23;12.40;;;16.00;99.90;;;;;;5035100;28;20198;-54
2021/09/27 05:51:20;;;;;;;13.63;12.32;;;16.20;99.90;;;;;;5028145;28;20190;-52
2021/09/27 05:54:03;;;;;;;13.43;12.02;;;16.00;99.90;;;;;;5030312;28;20210;-54
2021/09/27 05:56:36;;;;;;;14.02;11.80;;;16.00;99.90;;;;;;5023111;28;20214;-49
2021/09/27 05:59:05;;;;;;;13.90;12.50;;;15.90;99.90;;;;;;5026481;28;20213;-50
2021/09/27 06:01:47;;;;;;;13.80;12.27;;;16.10;99.90;;;;;;5031984;28;20583;-49
2021/09/27 06:04:36;;;;;;;13.80;11.80;;;16.00;99.90;;;;;;5032464;28;20193;-49
2021/09/27 06:07:10;;;;;;;13.57;12.18;;;16.00;99.90;;;;;;5025143;28;20670;-49
2021/09/27 06:09:50;;;;;;;14.07;12.57;;;16.30;99.90;;;;;;5029012;28;20174;-50
2021/09/27 06:12:46;;;;;;;13.48;12.07;;;16.20;99.90;;;;;;5026040;28;20196;-50
2021/09/27 06:15:14;;;;;;;12.43;11.00;;;15.90;99.90;;;;;;5021150;28;20196;-49
2021/09/27 06:18:04;;;;;;;15.73;11.70;;;16.20;99.90;;;;;;5031939;28;20293;-49
2021/09/27 06:20:59;;;;;;;15.07;13.43;;;16.20;99.90;;;;;;5037716;28;20230;-50
2021/09/27 06:23:47;;;;;;;13.55;12.20;;;16.40;99.90;;;;;;5025419;28;20248;-50
2021/09/27 06:26:14;;;;;;;14.95;11.80;;;16.50;99.90;;;;;;5031366;28;20243;-49
2021/09/27 06:29:14;;;;;;;12.95;11.63;;;16.60;99.90;;;;;;5022299;28;20211;-49
2021/09/27 06:31:51;;;;;;;13.20;11.20;;;16.70;99.90;;;;;;5025018;28;20594;-50
2021/09/27 06:34:21;;;;;;;13.38;12.05;;;16.80;99.90;;;;;;5025464;28;20679;-50
2021/09/27 06:36:47;;;;;;;12.70;11.45;;;17.00;99.90;;;;;;5031811;28;20205;-49
2021/09/27 06:39:20;;;;;;;12.00;10.80;;;17.10;99.90;;;;;;5032428;28;20749;-50
2021/09/27 06:41:51;;;;;;;12.07;10.90;;;17.10;99.90;;;;;;5025904;28;20189;-49
2021/09/27 06:44:17;;;;;;;12.50;11.15;;;17.30;99.90;;;;;;5026746;28;20448;-50
2021/09/27 06:46:43;;;;;;;11.77;10.55;;;17.20;99.90;;;;;;5024406;28;20230;-49
2021/09/27 06:49:09;;;;;;;12.57;11.38;;;17.30;99.90;;;;;;5027303;28;20217;-48
2021/09/27 06:51:42;;;;;;;13.50;10.40;;;17.30;99.90;;;;;;5026883;28;20191;-50
2021/09/27 06:54:18;;;;;;;11.55;9.98;;;17.40;99.90;;;;;;5030124;28;20212;-51
2021/09/27 06:56:46;;;;;;;10.88;9.52;;;17.30;99.90;;;;;;5021614;28;20554;-49
2021/09/27 06:59:14;;;;;;;12.68;11.30;;;17.40;99.90;;;;;;5027245;28;20326;-51
2021/09/27 07:01:40;;;;;;;11.20;9.98;;;17.80;99.90;;;;;;5026008;28;20894;-51
2021/09/27 07:04:06;;;;;;;12.00;10.80;;;17.60;99.90;;;;;;5016619;28;20265;-51
2021/09/27 07:06:31;;;;;;;12.80;9.88;;;17.80;99.90;;;;;;5028101;28;20200;-49
2021/09/27 07:08:57;;;;;;;10.53;9.53;;;18.00;99.90;;;;;;5030316;28;20198;-50
2021/09/27 07:11:23;;;;;;;9.60;8.70;;;18.20;99.90;;;;;;5031129;28;20182;-49
2021/09/27 07:13:49;;;;;;;9.47;8.57;;;18.30;99.90;;;;;;5024842;28;20217;-49
2021/09/27 07:16:14;;;;;;;11.93;9.00;;;18.70;99.90;;;;;;5031836;28;20433;-50
2021/09/27 07:18:40;;;;;;;9.73;8.73;;;18.90;99.90;;;;;;5032924;28;20555;-51
2021/09/27 07:21:08;;;;;;;9.93;8.93;;;19.10;99.90;;;;;;5024258;28;20182;-51
2021/09/27 07:23:40;;;;;;;9.18;8.18;;;19.30;99.90;;;;;;5010952;28;20182;-50
2021/09/27 07:26:12;;;;;;;8.60;7.78;;;19.20;99.90;;;;;;5028889;28;20237;-51
2021/09/27 07:28:38;;;;;;;9.27;8.48;;;19.30;99.90;;;;;;5030285;28;20217;-52
2021/09/27 07:31:05;;;;;;;9.00;8.20;;;19.40;99.90;;;;;;5031425;28;20190;-52
2021/09/27 07:33:32;;;;;;;9.23;8.32;;;19.50;99.90;;;;;;5026313;28;20268;-50
2021/09/27 07:35:58;;;;;;;8.70;7.90;;;19.60;99.90;;;;;;5031480;28;20213;-50
2021/09/27 07:38:24;;;;;;;8.70;7.80;;;19.70;99.90;;;;;;5024336;28;20214;-51
2021/09/27 07:40:51;;;;;;;8.73;7.88;;;19.80;99.90;;;;;;5027359;28;20244;-51
2021/09/27 07:43:17;;;;;;;8.25;7.53;;;20.00;99.90;;;;;;5020146;28;20282;-50
2021/09/27 07:45:44;;;;;;;8.93;8.13;;;20.20;99.90;;;;;;5026915;28;20272;-51
2021/09/27 07:48:13;;;;;;;9.63;7.32;;;20.90;99.90;;;;;;5030201;28;20245;-51
2021/09/27 07:50:45;;;;;;;9.32;6.65;;;21.60;99.90;;;;;;5025653;28;20182;-52
2021/09/27 07:53:12;;;;;;;7.68;6.97;;;21.80;99.90;;;;;;5026454;28;20206;-50
2021/09/27 07:55:38;;;;;;;7.85;6.68;;;21.70;99.90;;;;;;5031718;28;20664;-51
2021/09/27 07:58:03;;;;;;;8.60;7.90;;;21.70;99.90;;;;;;5031032;28;20243;-52
2021/09/27 08:00:30;;;;;;;8.07;7.37;;;21.60;99.90;;;;;;5031129;28;20228;-50
2021/09/27 08:02:55;;;;;;;9.20;7.45;;;21.60;99.90;;;;;;5029985;28;20966;-50
2021/09/27 08:05:25;;;;;;;8.90;8.00;;;21.60;99.90;;;;;;5031212;28;20221;-53
2021/09/27 08:07:51;;;;;;;8.15;7.35;;;21.60;99.90;;;;;;5031803;28;20456;-51
2021/09/27 08:10:19;;;;;;;7.73;6.90;;;21.20;99.90;;;;;;5036219;28;20313;-52
2021/09/27 08:12:45;;;;;;;7.68;6.88;;;21.20;99.90;;;;;;5031624;28;21019;-50
2021/09/27 08:15:14;;;;;;;8.10;6.40;;;21.30;99.90;;;;;;5034076;28;20186;-50
2021/09/27 08:17:41;;;;;;;7.50;6.80;;;21.40;99.90;;;;;;5029986;28;20279;-51
2021/09/27 08:20:11;;;;;;;7.32;6.57;;;21.40;99.90;;;;;;5030723;28;20217;-48
2021/09/27 08:22:36;;;;;;;7.13;6.43;;;21.50;99.90;;;;;;5035402;28;20213;-50
2021/09/27 08:25:04;;;;;;;7.10;6.50;;;21.50;99.90;;;;;;5030275;28;20694;-51
2021/09/27 08:27:29;;;;;;;6.78;6.18;;;21.40;99.90;;;;;;5030185;28;20201;-49
2021/09/27 08:29:55;;;;;;;5.80;5.30;;;21.40;99.90;;;;;;5030933;28;20236;-53
2021/09/27 08:32:21;;;;;;;5.97;5.47;;;21.40;99.90;;;;;;5028710;28;20186;-50
2021/09/27 08:34:49;;;;;;;5.90;5.40;;;21.30;99.90;;;;;;5032822;28;20221;-50
2021/09/27 08:37:15;;;;;;;6.15;5.55;;;21.40;99.90;;;;;;5027419;28;20659;-50
2021/09/27 08:39:40;;;;;;;6.13;5.60;;;21.50;99.90;;;;;;5028535;28;20265;-51
2021/09/27 08:42:10;;;;;;;6.00;5.50;;;21.50;99.90;;;;;;5029578;28;20183;-51
2021/09/27 08:45:07;;;;;;;7.38;5.35;;;21.50;99.90;;;;;;5025881;28;20190;-50
2021/09/27 08:47:49;;;;;;;5.63;5.10;;;21.50;99.90;;;;;;5029960;28;20197;-50
2021/09/27 08:50:39;;;;;;;4.95;4.55;;;21.40;99.90;;;;;;5030860;28;20286;-50
2021/09/27 08:53:14;;;;;;;4.60;4.20;;;21.40;99.90;;;;;;5030524;28;20300;-50
2021/09/27 08:55:40;;;;;;;5.40;4.90;;;21.60;99.10;;;;;;5029832;28;20174;-52
2021/09/27 08:58:26;;;;;;;4.30;4.00;;;21.70;98.70;;;;;;5030091;28;20314;-51
2021/09/27 09:00:59;;;;;;;4.50;3.83;;;22.40;98.30;;;;;;5029697;28;20437;-51
2021/09/27 09:03:56;;;;;;;4.83;4.20;;;23.30;96.80;;;;;;5030072;28;20438;-50
2021/09/27 09:06:39;;;;;;;4.60;4.20;;;23.80;95.10;;;;;;5023760;28;21033;-50
2021/09/27 09:09:15;;;;;;;8.40;4.80;;;24.10;94.60;;;;;;5028628;28;20460;-51
2021/09/27 09:11:55;;;;;;;5.33;4.87;;;23.60;94.40;;;;;;5026171;28;20993;-50
2021/09/27 09:14:24;;;;;;;6.70;4.23;;;23.50;94.80;;;;;;5031306;28;20468;-52
2021/09/27 09:16:52;;;;;;;4.53;4.13;;;23.50;95.40;;;;;;5029819;28;21002;-49
2021/09/27 09:19:24;;;;;;;4.57;4.17;;;23.80;94.40;;;;;;5030816;28;20468;-51
2021/09/27 09:21:52;;;;;;;3.87;3.57;;;24.10;93.70;;;;;;5023355;28;20559;-49
2021/09/27 09:24:23;;;;;;;4.00;3.70;;;24.20;93.10;;;;;;5029286;28;20517;-51
2021/09/27 09:26:52;;;;;;;3.50;3.20;;;24.50;92.90;;;;;;5032444;28;20452;-50
2021/09/27 09:29:24;;;;;;;5.40;4.47;;;25.10;91.70;;;;;;5023620;28;20567;-50
2021/09/27 09:32:24;;;;;;;6.37;4.03;;;25.40;91.90;;;;;;5021389;28;21115;-51
2021/09/27 09:34:53;;;;;;;4.57;3.90;;;26.50;88.90;;;;;;5031543;28;20925;-51
2021/09/27 09:37:45;;;;;;;5.67;5.00;;;26.80;88.70;;;;;;5030102;28;21043;-51
2021/09/27 09:40:19;;;;;;;3.63;3.33;;;27.80;84.30;;;;;;5040610;28;20436;-50
2021/09/27 09:43:05;;;;;;;4.40;4.00;;;29.10;80.30;;;;;;5022619;28;20442;-52
2021/09/27 09:45:37;;;;;;;3.63;3.33;;;30.40;74.70;;;;;;5030923;28;20499;-51
2021/09/27 09:48:14;;;;;;;4.03;3.73;;;31.50;69.70;;;;;;5029203;28;20448;-51
2021/09/27 09:50:42;;;;;;;3.60;3.30;;;31.30;67.10;;;;;;5022125;28;20437;-52
2021/09/27 09:53:22;;;;;;;3.57;3.30;;;31.10;67.00;;;;;;5023353;28;20508;-51
2021/09/27 09:56:04;;;;;;;4.67;3.70;;;31.10;66.10;;;;;;5021802;28;20443;-51
2021/09/27 09:58:43;;;;;;;3.00;2.80;;;32.50;63.20;;;;;;5027969;28;20461;-52
2021/09/27 10:01:35;;;;;;;3.77;3.27;;;33.10;59.20;;;;;;5034052;28;20428;-51
2021/09/27 10:04:07;;;;;;;3.50;3.30;;;31.50;60.60;;;;;;5027902;28;20448;-53
2021/09/27 10:06:36;;;;;;;3.63;3.33;;;31.70;61.20;;;;;;5030715;28;20448;-52
2021/09/27 10:09:07;;;;;;;3.40;3.20;;;31.80;60.00;;;;;;5036106;28;20459;-52
2021/09/27 10:11:37;;;;;;;3.67;3.37;;;31.20;61.70;;;;;;5032711;28;20470;-52
2021/09/27 10:14:21;;;;;;;3.23;3.03;;;30.00;64.00;;;;;;5028032;28;20483;-52
2021/09/27 10:17:08;;;;;;;3.90;3.60;;;29.40;67.20;;;;;;5029546;28;20945;-49
2021/09/27 10:19:39;;;;;;;3.83;3.53;;;28.10;68.50;;;;;;5030802;28;20440;-51
2021/09/27 10:22:15;;;;;;;3.10;2.90;;;26.60;72.00;;;;;;5032059;28;20451;-50
2021/09/27 10:24:45;;;;;;;4.27;3.97;;;26.10;74.90;;;;;;5029309;28;20487;-50
2021/09/27 10:27:22;;;;;;;3.50;3.30;;;25.50;77.60;;;;;;5031742;28;20483;-51
2021/09/27 10:29:49;;;;;;;6.00;3.50;;;25.30;79.70;;;;;;5020452;28;20451;-52
2021/09/27 10:32:46;;;;;;;4.73;4.30;;;24.90;81.40;;;;;;5027657;28;20434;-53
2021/09/27 10:35:30;;;;;;;4.40;4.10;;;24.60;83.30;;;;;;5033520;28;20889;-52
2021/09/27 10:38:07;;;;;;;3.60;3.30;;;24.40;85.30;;;;;;5024817;28;20472;-51
2021/09/27 10:40:33;;;;;;;3.57;3.37;;;24.60;83.40;;;;;;5030924;28;20865;-52
2021/09/27 10:43:01;;;;;;;4.00;3.60;;;24.50;83.20;;;;;;5031885;28;20531;-53
2021/09/27 10:45:29;;;;;;;4.23;3.40;;;24.40;83.70;;;;;;5033593;28;20458;-51
2021/09/27 10:47:57;;;;;;;4.50;4.10;;;24.50;84.20;;;;;;5013357;28;20466;-52
2021/09/27 10:50:27;;;;;;;3.30;3.00;;;24.60;84.50;;;;;;5033245;28;20453;-51
2021/09/27 10:52:53;;;;;;;3.80;3.47;;;24.20;84.00;;;;;;5031774;28;20479;-52
2021/09/27 10:55:36;;;;;;;3.33;3.07;;;24.10;85.70;;;;;;5027826;28;20979;-52
2021/09/27 10:58:06;;;;;;;3.20;3.00;;;24.00;84.20;;;;;;5030800;28;20213;-52
2021/09/27 11:00:40;;;;;;;3.63;3.33;;;23.90;84.80;;;;;;5031565;28;20433;-51
2021/09/27 11:03:28;;;;;;;4.13;3.73;;;23.70;85.60;;;;;;5038353;28;20976;-50
2021/09/27 11:06:01;;;;;;;3.70;3.40;;;23.60;86.70;;;;;;5034280;28;20436;-51
2021/09/27 11:08:44;;;;;;;2.77;2.57;;;23.80;86.80;;;;;;5032215;28;20461;-53
2021/09/27 11:11:18;;;;;;;3.03;2.83;;;23.90;85.30;;;;;;5032131;28;20424;-52
2021/09/27 11:13:45;;;;;;;3.33;2.97;;;24.00;84.40;;;;;;5031750;28;20473;-52
2021/09/27 11:16:22;;;;;;;3.33;3.13;;;24.20;84.60;;;;;;5032071;28;20479;-52
2021/09/27 11:18:55;;;;;;;3.33;3.03;;;24.50;84.00;;;;;;5034676;28;20459;-50
2021/09/27 11:21:40;;;;;;;4.10;3.53;;;24.70;83.40;;;;;;5032219;28;20512;-49
2021/09/27 11:24:09;;;;;;;2.87;2.63;;;24.80;80.60;;;;;;5028042;28;20965;-50
2021/09/27 11:26:44;;;;;;;2.87;2.67;;;24.70;80.80;;;;;;5036924;28;20441;-51
2021/09/27 11:29:36;;;;;;;2.30;2.13;;;24.70;80.10;;;;;;5029019;28;21277;-52
2021/09/27 11:32:19;;;;;;;3.00;2.60;;;24.70;81.00;;;;;;5028581;28;20452;-51
2021/09/27 11:35:00;;;;;;;2.60;2.40;;;24.70;81.30;;;;;;5030997;28;20935;-54
2021/09/27 11:37:28;;;;;;;3.30;3.00;;;24.90;80.60;;;;;;5026012;28;20467;-52
2021/09/27 11:40:06;;;;;;;2.50;2.30;;;24.90;80.50;;;;;;5030320;28;20643;-52
2021/09/27 11:42:36;;;;;;;2.60;2.40;;;24.90;79.80;;;;;;5036167;28;20441;-51
2021/09/27 11:45:09;;;;;;;3.10;2.90;;;24.90;79.60;;;;;;5024817;28;20451;-50
2021/09/27 11:47:40;;;;;;;3.53;2.37;;;24.80;80.50;;;;;;5030482;28;20550;-51
2021/09/27 11:50:50;;;;;;;3.87;2.83;;;24.70;80.60;;;;;;5037838;28;20507;-51
2021/09/27 11:53:48;;;;;;;3.30;3.00;;;24.50;80.40;;;;;;5023328;28;20484;-51
2021/09/27 11:56:39;;;;;;;2.77;2.57;;;24.50;81.90;;;;;;5028938;28;20447;-50
2021/09/27 11:59:23;;;;;;;3.23;3.03;;;24.40;82.30;;;;;;5014246;28;20465;-52
2021/09/27 12:02:08;;;;;;;3.23;2.93;;;24.60;82.50;;;;;;5028849;28;20441;-52
2021/09/27 12:04:56;;;;;;;3.80;3.30;;;24.70;82.60;;;;;;5025779;28;20469;-52
2021/09/27 12:07:42;;;;;;;3.37;2.67;;;24.90;81.50;;;;;;5022531;28;20445;-51
2021/09/27 12:10:14;;;;;;;2.80;2.60;;;24.80;81.20;;;;;;5046555;28;20503;-51
2021/09/27 12:12:53;;;;;;;2.57;2.37;;;25.00;81.70;;;;;;5038381;28;20830;-51
2021/09/27 12:15:24;;;;;;;2.80;2.60;;;25.20;80.10;;;;;;5028152;28;20971;-51
2021/09/27 12:17:50;;;;;;;2.47;2.37;;;25.20;79.20;;;;;;5028877;28;20528;-51
2021/09/27 12:20:24;;;;;;;3.70;2.60;;;25.20;79.50;;;;;;5034851;28;20532;-51
2021/09/27 12:22:56;;;;;;;3.03;2.83;;;25.20;80.30;;;;;;5031899;28;20436;-51
2021/09/27 12:25:35;;;;;;;2.77;2.57;;;25.10;80.00;;;;;;5034126;28;20436;-51
2021/09/27 12:28:10;;;;;;;3.30;2.90;;;24.90;80.30;;;;;;5030914;28;20461;-51
2021/09/27 12:30:40;;;;;;;2.67;2.40;;;25.20;81.10;;;;;;5027042;28;20447;-51
2021/09/27 12:33:14;;;;;;;3.43;3.13;;;25.20;80.20;;;;;;5026238;28;20476;-50
2021/09/27 12:35:43;;;;;;;4.40;4.00;;;25.20;80.20;;;;;;5033111;28;20527;-51
2021/09/27 12:38:10;;;;;;;2.80;2.60;;;25.20;80.50;;;;;;5020864;28;20489;-52
2021/09/27 12:40:43;;;;;;;2.90;2.70;;;25.20;79.50;;;;;;5022585;28;20965;-52
2021/09/27 12:43:22;;;;;;;2.73;2.53;;;25.20;80.10;;;;;;5029813;28;20502;-51
2021/09/27 12:46:07;;;;;;;4.30;3.30;;;25.20;79.70;;;;;;5022526;28;20986;-48
2021/09/27 12:48:40;;;;;;;3.30;2.97;;;25.20;80.30;;;;;;5027119;28;20465;-51
2021/09/27 12:51:16;;;;;;;2.80;2.57;;;25.40;80.30;;;;;;5029689;28;20449;-50
2021/09/27 12:53:52;;;;;;;3.30;2.80;;;25.40;79.60;;;;;;5026339;28;21037;-51
2021/09/27 12:56:19;;;;;;;3.00;2.80;;;25.40;79.70;;;;;;5033729;28;20432;-50
2021/09/27 12:58:55;;;;;;;2.73;2.53;;;25.00;81.30;;;;;;5031273;28;20488;-50
2021/09/27 13:01:23;;;;;;;2.73;2.33;;;25.20;80.90;;;;;;5029294;28;20441;-49
2021/09/27 13:03:58;;;;;;;3.03;2.83;;;25.10;81.00;;;;;;5026533;28;20516;-51
2021/09/27 13:06:35;;;;;;;3.20;2.90;;;25.20;81.80;;;;;;5023262;28;20441;-50
2021/09/27 13:09:19;;;;;;;2.87;2.57;;;25.20;81.00;;;;;;5033305;28;20481;-50
2021/09/27 13:11:50;;;;;;;2.40;2.20;;;25.20;80.30;;;;;;5029736;28;20949;-49
2021/09/27 13:14:21;;;;;;;3.00;2.80;;;25.10;80.90;;;;;;5023866;28;20837;-49
2021/09/27 13:16:50;;;;;;;2.93;2.67;;;25.00;82.30;;;;;;5029742;28;20441;-50
2021/09/27 13:19:37;;;;;;;3.00;2.80;;;25.10;83.00;;;;;;5029138;28;20489;-50
2021/09/27 13:22:03;;;;;;;3.37;3.07;;;25.20;83.10;;;;;;5028482;28;20473;-52
2021/09/27 13:24:30;;;;;;;3.00;2.67;;;24.90;82.50;;;;;;5027807;28;20451;-50